Skip Navigation Links
NOAA logo - Click to go to the NOAA homepage
NOAA's National Weather Service
Alaska Aviation Weather Unit
  NWS logo - Click to go to the NWS homepage
Left Navbar Graphic     17 AKDT = 01 GMT

   
NOAA is celebrating 200 years of science, service, and stewardship. Visit the NOAA 200th celebration Web site to learn more.
USA.gov is the U.S. Government's official Web portal to all Federal, state and local government Web resources and services.
Facebook
NWS on Facebook

Important Change Regarding the AAWU Web Presence

 

Over the last several months, the AAWU has been working to navigate its webpages to a nationally supported server. Security, as well as other needs, have necessitated the change.  In the process, we have made an effort to enhance the functionality of our website, as well as some of our products. As of June 27, 2017, aawu.arh.noaa.gov will be discontinued. The new AAWU web address is weather.gov/aawu. It is now live and will run in-parallel with the old site until it is discontinued. Please send any feedback or questions regarding the new webpages to nws.ar.aawu.webauthors@noaa.gov.  Thank you for your patience during this time of transition.
AAWU Home :: Display TAF Add Bookmark
TAF PAGK 252323Z 2600/2624 VRB05KT P6SM VCSH SCT050 BKN080
     FM260800 18007KT P6SM SCT080 BKN120
     FM261900 16010G18KT P6SM SCT120 BKN200
     FM262200 16016G26KT P6SM BKN200=
METAR PAGK 251953Z AUTO VRB04KT 10SM CLR 18/07 A2996 RMK AO2 SLP145
     T01830072 TSNO=

METAR PAGK 252053Z AUTO 31006KT 10SM CLR 21/08 A2994 RMK AO2 SLP134
     T02110078 58019 TSNO=

METAR PAGK 252153Z AUTO VRB05KT 10SM BKN090 21/07 A2992 RMK AO2
 SLP128 T02110067 TSNO=

METAR PAGK 252253Z AUTO 32005KT 10SM BKN060 BKN090 20/06 A2991 RMK AO2
     SLP126 T02000061 TSNO=

SPECI PAGK 252319Z AUTO 24005KT 2SM +RA SCT055 OVC070 15/09 A2992 RMK
     AO2 RAB07 P0011 T01500094 TSNO=

SPECI PAGK 252331Z AUTO 33005KT 5SM -RA BKN060 OVC075 14/12 A2993 RMK
     AO2 RAB07 P0015 T01440117 TSNO=

METAR PAGK 252353Z AUTO 36014G17KT 10SM -RA SCT042 BKN055 BKN070 18/11
     A2992 RMK AO2 RAB07 SLP132 P0016 60016 T01780111 10222 20139
     55006 TSNO=


NOAA's National Weather Service
Alaska Aviation Weather Unit
6930 Sand Lake Road
Anchorage, AK 99502-1845
Disclaimer
Credits
Glossary
Privacy Policy
About Us
Career Opportunities
Contact AAWU Internet Services Site last modified: April, 17th 2012